Portada
METAR-TAF:

METAR-TAF

Aeroports :

Tahlequah, Oklahoma, Estats Units d'Amèrica

latitud: 35-55-44N, longitud: 095-00-16W, altitud: 266 m

Observació

L'informe es va fer fa 19 minuts, a les 21:35 UTC
Vent 6 kt del Nord
Temperatura 9°C
Humitat 93%
Pressió 1016 hPa
Visibilitat: 16.1 km
Cel cobert a una alçada de 800 ft

METAR: KTQH 212135Z AUTO 36006KT 10SM OVC008 09/08 A2999 RMK AO2

Hora: 15:54 (21:54 UTC)


TAF: manca

Observacions i pronòstics meteorològics de més de 4000 aeroports (METAR i TAF).

Les estacions disponibles són els punts grocs i vermells al mapa.

Posi el ratolí al punt desitjat per veure el nom de l'estació.

Feu clic per veure les observacions i els pronòstics meteorològics.

Per canviar el mapa: feu clic els botons verds amb una creu de color negre per apropar; al botó verd amb un guió per allunyar la imatge; o en les fletxes verdes per a mapes adjacents.


METAR-TAF: